sensor_id;sensor_type;location;lat;lon;timestamp;P1;durP1;ratioP1;P2;durP2;ratioP2
68192;SDS011;55012;47.562;18.414;2022-12-16T00:01:59;26.17;;;10.85;;
68192;SDS011;55012;47.562;18.414;2022-12-16T00:04:25;27.15;;;11.98;;
68192;SDS011;55012;47.562;18.414;2022-12-16T00:06:51;29.25;;;12.02;;
68192;SDS011;55012;47.562;18.414;2022-12-16T00:09:16;26.65;;;11.77;;
68192;SDS011;55012;47.562;18.414;2022-12-16T00:11:41;31.98;;;12.48;;
68192;SDS011;55012;47.562;18.414;2022-12-16T00:14:07;33.25;;;12.57;;
68192;SDS011;55012;47.562;18.414;2022-12-16T00:16:32;33.67;;;13.48;;
68192;SDS011;55012;47.562;18.414;2022-12-16T00:18:58;31.38;;;11.55;;
68192;SDS011;55012;47.562;18.414;2022-12-16T00:21:23;27.60;;;12.45;;
68192;SDS011;55012;47.562;18.414;2022-12-16T00:23:53;30.63;;;11.80;;
68192;SDS011;55012;47.562;18.414;2022-12-16T00:26:19;27.70;;;11.80;;
68192;SDS011;55012;47.562;18.414;2022-12-16T00:28:45;28.05;;;11.23;;
68192;SDS011;55012;47.562;18.414;2022-12-16T00:31:11;28.77;;;11.70;;
68192;SDS011;55012;47.562;18.414;2022-12-16T00:33:36;29.38;;;12.18;;
68192;SDS011;55012;47.562;18.414;2022-12-16T00:36:02;26.83;;;11.25;;
68192;SDS011;55012;47.562;18.414;2022-12-16T00:38:28;29.48;;;11.50;;
68192;SDS011;55012;47.562;18.414;2022-12-16T00:40:53;28.95;;;11.93;;
68192;SDS011;55012;47.562;18.414;2022-12-16T00:43:20;32.00;;;13.63;;
68192;SDS011;55012;47.562;18.414;2022-12-16T00:45:45;30.55;;;13.70;;
68192;SDS011;55012;47.562;18.414;2022-12-16T00:48:11;36.67;;;13.40;;
68192;SDS011;55012;47.562;18.414;2022-12-16T00:50:37;39.90;;;14.73;;
68192;SDS011;55012;47.562;18.414;2022-12-16T00:53:02;47.88;;;14.18;;
68192;SDS011;55012;47.562;18.414;2022-12-16T00:55:29;50.55;;;15.73;;
68192;SDS011;55012;47.562;18.414;2022-12-16T00:57:56;65.78;;;17.88;;
68192;SDS011;55012;47.562;18.414;2022-12-16T01:00:22;45.97;;;16.02;;
68192;SDS011;55012;47.562;18.414;2022-12-16T01:02:48;43.47;;;15.55;;
68192;SDS011;55012;47.562;18.414;2022-12-16T01:05:16;44.63;;;16.10;;
68192;SDS011;55012;47.562;18.414;2022-12-16T01:07:50;41.55;;;14.55;;
68192;SDS011;55012;47.562;18.414;2022-12-16T01:10:17;35.53;;;13.90;;
68192;SDS011;55012;47.562;18.414;2022-12-16T01:12:43;25.38;;;10.93;;
68192;SDS011;55012;47.562;18.414;2022-12-16T01:15:09;26.95;;;10.63;;
68192;SDS011;55012;47.562;18.414;2022-12-16T01:17:36;29.58;;;11.27;;
68192;SDS011;55012;47.562;18.414;2022-12-16T01:20:02;26.75;;;11.02;;
68192;SDS011;55012;47.562;18.414;2022-12-16T01:22:29;26.60;;;11.05;;
68192;SDS011;55012;47.562;18.414;2022-12-16T01:24:56;26.35;;;10.70;;
68192;SDS011;55012;47.562;18.414;2022-12-16T01:27:22;26.27;;;11.02;;
68192;SDS011;55012;47.562;18.414;2022-12-16T01:29:47;28.40;;;11.93;;
68192;SDS011;55012;47.562;18.414;2022-12-16T01:32:14;29.63;;;10.45;;
68192;SDS011;55012;47.562;18.414;2022-12-16T01:34:40;30.10;;;11.52;;
68192;SDS011;55012;47.562;18.414;2022-12-16T01:37:08;26.30;;;10.73;;
68192;SDS011;55012;47.562;18.414;2022-12-16T01:39:36;28.13;;;10.80;;
68192;SDS011;55012;47.562;18.414;2022-12-16T01:42:01;27.60;;;11.63;;
68192;SDS011;55012;47.562;18.414;2022-12-16T01:44:27;25.65;;;11.48;;
68192;SDS011;55012;47.562;18.414;2022-12-16T01:46:59;24.13;;;10.93;;
68192;SDS011;55012;47.562;18.414;2022-12-16T01:52:07;27.10;;;11.07;;
68192;SDS011;55012;47.562;18.414;2022-12-16T01:54:38;27.10;;;11.45;;
68192;SDS011;55012;47.562;18.414;2022-12-16T01:57:10;25.33;;;10.48;;
68192;SDS011;55012;47.562;18.414;2022-12-16T01:59:39;25.85;;;10.38;;
68192;SDS011;55012;47.562;18.414;2022-12-16T02:02:08;24.33;;;10.18;;
68192;SDS011;55012;47.562;18.414;2022-12-16T02:04:34;26.33;;;10.07;;
68192;SDS011;55012;47.562;18.414;2022-12-16T02:06:59;25.52;;;10.80;;
68192;SDS011;55012;47.562;18.414;2022-12-16T02:09:25;25.55;;;10.65;;
68192;SDS011;55012;47.562;18.414;2022-12-16T02:17:31;24.70;;;10.50;;
68192;SDS011;55012;47.562;18.414;2022-12-16T02:28:11;24.92;;;10.52;;
68192;SDS011;55012;47.562;18.414;2022-12-16T02:31:44;23.02;;;10.00;;
68192;SDS011;55012;47.562;18.414;2022-12-16T02:34:07;24.45;;;10.75;;
68192;SDS011;55012;47.562;18.414;2022-12-16T02:39:50;22.20;;;9.90;;
68192;SDS011;55012;47.562;18.414;2022-12-16T02:42:29;30.20;;;11.25;;
68192;SDS011;55012;47.562;18.414;2022-12-16T02:47:43;25.42;;;11.05;;
68192;SDS011;55012;47.562;18.414;2022-12-16T02:50:22;35.65;;;14.98;;
68192;SDS011;55012;47.562;18.414;2022-12-16T02:53:00;48.25;;;18.85;;
68192;SDS011;55012;47.562;18.414;2022-12-16T02:58:27;42.88;;;19.02;;
68192;SDS011;55012;47.562;18.414;2022-12-16T03:03:49;23.25;;;10.48;;
68192;SDS011;55012;47.562;18.414;2022-12-16T03:06:23;22.25;;;10.13;;
68192;SDS011;55012;47.562;18.414;2022-12-16T03:08:51;17.92;;;9.13;;
68192;SDS011;55012;47.562;18.414;2022-12-16T03:11:20;27.17;;;11.88;;
68192;SDS011;55012;47.562;18.414;2022-12-16T03:13:48;30.15;;;13.85;;
68192;SDS011;55012;47.562;18.414;2022-12-16T03:16:17;32.17;;;15.35;;
68192;SDS011;55012;47.562;18.414;2022-12-16T03:18:46;29.52;;;13.40;;
68192;SDS011;55012;47.562;18.414;2022-12-16T03:21:16;26.02;;;12.68;;
68192;SDS011;55012;47.562;18.414;2022-12-16T03:23:46;25.33;;;11.50;;
68192;SDS011;55012;47.562;18.414;2022-12-16T03:26:24;18.00;;;9.05;;
68192;SDS011;55012;47.562;18.414;2022-12-16T03:28:57;22.98;;;10.55;;
68192;SDS011;55012;47.562;18.414;2022-12-16T03:31:31;24.40;;;10.55;;
68192;SDS011;55012;47.562;18.414;2022-12-16T03:34:23;31.60;;;12.23;;
68192;SDS011;55012;47.562;18.414;2022-12-16T03:37:01;27.52;;;11.13;;
68192;SDS011;55012;47.562;18.414;2022-12-16T03:39:33;34.30;;;13.30;;
68192;SDS011;55012;47.562;18.414;2022-12-16T03:42:09;34.05;;;13.32;;
68192;SDS011;55012;47.562;18.414;2022-12-16T03:44:35;33.65;;;14.35;;
68192;SDS011;55012;47.562;18.414;2022-12-16T03:47:01;31.70;;;13.93;;
68192;SDS011;55012;47.562;18.414;2022-12-16T03:49:27;26.42;;;11.75;;
68192;SDS011;55012;47.562;18.414;2022-12-16T03:51:53;23.50;;;11.23;;
68192;SDS011;55012;47.562;18.414;2022-12-16T03:54:19;28.35;;;12.05;;
68192;SDS011;55012;47.562;18.414;2022-12-16T03:56:46;26.90;;;12.48;;
68192;SDS011;55012;47.562;18.414;2022-12-16T03:59:11;23.73;;;10.55;;
68192;SDS011;55012;47.562;18.414;2022-12-16T04:01:38;24.40;;;11.73;;
68192;SDS011;55012;47.562;18.414;2022-12-16T04:04:04;26.25;;;12.52;;
68192;SDS011;55012;47.562;18.414;2022-12-16T04:06:29;31.92;;;13.63;;
68192;SDS011;55012;47.562;18.414;2022-12-16T04:08:55;28.65;;;12.82;;
68192;SDS011;55012;47.562;18.414;2022-12-16T04:11:23;29.33;;;12.63;;
68192;SDS011;55012;47.562;18.414;2022-12-16T04:14:07;38.10;;;15.15;;
68192;SDS011;55012;47.562;18.414;2022-12-16T04:16:52;40.55;;;16.55;;
68192;SDS011;55012;47.562;18.414;2022-12-16T04:19:36;45.53;;;17.55;;
68192;SDS011;55012;47.562;18.414;2022-12-16T04:22:22;42.55;;;17.00;;
68192;SDS011;55012;47.562;18.414;2022-12-16T04:25:11;46.42;;;15.77;;
68192;SDS011;55012;47.562;18.414;2022-12-16T04:27:39;37.22;;;14.95;;
68192;SDS011;55012;47.562;18.414;2022-12-16T04:30:11;35.28;;;13.57;;
68192;SDS011;55012;47.562;18.414;2022-12-16T04:32:53;30.40;;;12.85;;
68192;SDS011;55012;47.562;18.414;2022-12-16T04:35:41;44.28;;;15.48;;
68192;SDS011;55012;47.562;18.414;2022-12-16T04:38:24;48.95;;;17.80;;
68192;SDS011;55012;47.562;18.414;2022-12-16T04:41:08;54.53;;;19.13;;
68192;SDS011;55012;47.562;18.414;2022-12-16T04:43:52;66.53;;;21.27;;
68192;SDS011;55012;47.562;18.414;2022-12-16T04:46:36;62.03;;;20.58;;
68192;SDS011;55012;47.562;18.414;2022-12-16T04:49:20;45.70;;;16.45;;
68192;SDS011;55012;47.562;18.414;2022-12-16T04:52:04;41.17;;;16.25;;
68192;SDS011;55012;47.562;18.414;2022-12-16T04:54:48;53.77;;;19.80;;
68192;SDS011;55012;47.562;18.414;2022-12-16T04:57:32;39.53;;;16.00;;
68192;SDS011;55012;47.562;18.414;2022-12-16T05:00:17;34.13;;;14.63;;
68192;SDS011;55012;47.562;18.414;2022-12-16T05:03:01;60.47;;;23.10;;
68192;SDS011;55012;47.562;18.414;2022-12-16T05:05:45;58.22;;;22.73;;
68192;SDS011;55012;47.562;18.414;2022-12-16T05:08:29;48.72;;;21.60;;
68192;SDS011;55012;47.562;18.414;2022-12-16T05:11:13;53.50;;;22.75;;
68192;SDS011;55012;47.562;18.414;2022-12-16T05:13:57;72.47;;;29.48;;
68192;SDS011;55012;47.562;18.414;2022-12-16T05:16:41;35.20;;;16.05;;
68192;SDS011;55012;47.562;18.414;2022-12-16T05:19:25;24.33;;;11.57;;
68192;SDS011;55012;47.562;18.414;2022-12-16T05:22:08;44.92;;;19.17;;
68192;SDS011;55012;47.562;18.414;2022-12-16T05:24:52;47.92;;;20.90;;
68192;SDS011;55012;47.562;18.414;2022-12-16T05:27:36;55.05;;;21.65;;
68192;SDS011;55012;47.562;18.414;2022-12-16T05:30:20;48.60;;;18.02;;
68192;SDS011;55012;47.562;18.414;2022-12-16T05:33:05;38.78;;;15.10;;
68192;SDS011;55012;47.562;18.414;2022-12-16T05:35:49;27.73;;;13.40;;
68192;SDS011;55012;47.562;18.414;2022-12-16T05:38:33;29.30;;;13.65;;
68192;SDS011;55012;47.562;18.414;2022-12-16T05:41:17;31.60;;;13.93;;
68192;SDS011;55012;47.562;18.414;2022-12-16T05:44:01;28.05;;;13.63;;
68192;SDS011;55012;47.562;18.414;2022-12-16T05:46:45;27.92;;;13.05;;
68192;SDS011;55012;47.562;18.414;2022-12-16T05:49:29;31.58;;;13.40;;
68192;SDS011;55012;47.562;18.414;2022-12-16T05:52:13;31.65;;;14.05;;
68192;SDS011;55012;47.562;18.414;2022-12-16T05:54:57;30.15;;;13.35;;
68192;SDS011;55012;47.562;18.414;2022-12-16T05:57:41;31.33;;;13.65;;
68192;SDS011;55012;47.562;18.414;2022-12-16T06:00:25;33.35;;;14.32;;
68192;SDS011;55012;47.562;18.414;2022-12-16T06:03:08;32.22;;;13.30;;
68192;SDS011;55012;47.562;18.414;2022-12-16T06:05:52;38.10;;;14.68;;
68192;SDS011;55012;47.562;18.414;2022-12-16T06:08:36;34.47;;;14.73;;
68192;SDS011;55012;47.562;18.414;2022-12-16T06:11:20;34.90;;;15.30;;
68192;SDS011;55012;47.562;18.414;2022-12-16T06:14:04;48.42;;;18.67;;
68192;SDS011;55012;47.562;18.414;2022-12-16T06:16:48;48.30;;;18.17;;
68192;SDS011;55012;47.562;18.414;2022-12-16T06:19:34;44.72;;;17.80;;
68192;SDS011;55012;47.562;18.414;2022-12-16T06:22:18;49.83;;;20.67;;
68192;SDS011;55012;47.562;18.414;2022-12-16T06:25:02;50.35;;;17.55;;
68192;SDS011;55012;47.562;18.414;2022-12-16T06:27:50;51.95;;;19.90;;
68192;SDS011;55012;47.562;18.414;2022-12-16T06:30:35;47.38;;;18.42;;
68192;SDS011;55012;47.562;18.414;2022-12-16T06:33:19;42.05;;;16.05;;
68192;SDS011;55012;47.562;18.414;2022-12-16T06:36:03;36.25;;;15.07;;
68192;SDS011;55012;47.562;18.414;2022-12-16T06:38:47;39.30;;;15.17;;
68192;SDS011;55012;47.562;18.414;2022-12-16T06:41:31;39.97;;;15.95;;
68192;SDS011;55012;47.562;18.414;2022-12-16T06:44:15;37.72;;;15.40;;
68192;SDS011;55012;47.562;18.414;2022-12-16T06:46:59;43.03;;;16.55;;
68192;SDS011;55012;47.562;18.414;2022-12-16T06:49:43;40.95;;;16.45;;
68192;SDS011;55012;47.562;18.414;2022-12-16T06:52:27;44.13;;;17.92;;
68192;SDS011;55012;47.562;18.414;2022-12-16T06:55:10;39.53;;;16.02;;
68192;SDS011;55012;47.562;18.414;2022-12-16T06:57:58;39.78;;;16.30;;
68192;SDS011;55012;47.562;18.414;2022-12-16T07:00:42;46.42;;;18.25;;
68192;SDS011;55012;47.562;18.414;2022-12-16T07:03:27;51.25;;;20.45;;
68192;SDS011;55012;47.562;18.414;2022-12-16T07:06:12;51.75;;;20.95;;
68192;SDS011;55012;47.562;18.414;2022-12-16T07:08:55;56.05;;;22.23;;
68192;SDS011;55012;47.562;18.414;2022-12-16T07:11:39;59.17;;;22.10;;
68192;SDS011;55012;47.562;18.414;2022-12-16T07:14:23;44.92;;;17.45;;
68192;SDS011;55012;47.562;18.414;2022-12-16T07:17:07;50.72;;;17.48;;
68192;SDS011;55012;47.562;18.414;2022-12-16T07:19:51;52.80;;;19.45;;
68192;SDS011;55012;47.562;18.414;2022-12-16T07:22:36;54.10;;;20.10;;
68192;SDS011;55012;47.562;18.414;2022-12-16T07:25:20;52.75;;;19.73;;
68192;SDS011;55012;47.562;18.414;2022-12-16T07:28:04;46.20;;;17.17;;
68192;SDS011;55012;47.562;18.414;2022-12-16T07:30:47;54.78;;;19.33;;
68192;SDS011;55012;47.562;18.414;2022-12-16T07:33:31;49.63;;;18.20;;
68192;SDS011;55012;47.562;18.414;2022-12-16T07:36:15;49.85;;;17.75;;
68192;SDS011;55012;47.562;18.414;2022-12-16T07:38:59;59.28;;;19.50;;
68192;SDS011;55012;47.562;18.414;2022-12-16T07:41:43;55.67;;;19.10;;
68192;SDS011;55012;47.562;18.414;2022-12-16T07:44:27;58.55;;;19.55;;
68192;SDS011;55012;47.562;18.414;2022-12-16T07:47:11;62.33;;;21.42;;
68192;SDS011;55012;47.562;18.414;2022-12-16T07:49:55;54.50;;;19.70;;
68192;SDS011;55012;47.562;18.414;2022-12-16T07:52:39;52.33;;;18.60;;
68192;SDS011;55012;47.562;18.414;2022-12-16T07:55:23;44.08;;;17.50;;
68192;SDS011;55012;47.562;18.414;2022-12-16T07:58:07;44.08;;;17.27;;
68192;SDS011;55012;47.562;18.414;2022-12-16T08:00:52;43.97;;;16.90;;
68192;SDS011;55012;47.562;18.414;2022-12-16T08:03:36;44.13;;;17.08;;
68192;SDS011;55012;47.562;18.414;2022-12-16T08:06:20;44.05;;;16.65;;
68192;SDS011;55012;47.562;18.414;2022-12-16T08:09:04;47.22;;;17.80;;
68192;SDS011;55012;47.562;18.414;2022-12-16T08:11:48;46.60;;;17.02;;
68192;SDS011;55012;47.562;18.414;2022-12-16T08:14:32;40.67;;;16.58;;
68192;SDS011;55012;47.562;18.414;2022-12-16T08:17:16;40.28;;;15.88;;
68192;SDS011;55012;47.562;18.414;2022-12-16T08:20:00;40.10;;;16.83;;
68192;SDS011;55012;47.562;18.414;2022-12-16T08:22:43;38.15;;;17.10;;
68192;SDS011;55012;47.562;18.414;2022-12-16T08:25:27;38.25;;;16.42;;
68192;SDS011;55012;47.562;18.414;2022-12-16T08:28:11;38.78;;;17.05;;
68192;SDS011;55012;47.562;18.414;2022-12-16T08:30:55;37.83;;;16.05;;
68192;SDS011;55012;47.562;18.414;2022-12-16T08:33:39;39.35;;;16.90;;
68192;SDS011;55012;47.562;18.414;2022-12-16T08:36:23;35.55;;;15.60;;
68192;SDS011;55012;47.562;18.414;2022-12-16T08:39:07;42.85;;;17.17;;
68192;SDS011;55012;47.562;18.414;2022-12-16T08:41:51;40.60;;;17.60;;
68192;SDS011;55012;47.562;18.414;2022-12-16T08:44:35;38.20;;;16.38;;
68192;SDS011;55012;47.562;18.414;2022-12-16T08:47:19;43.67;;;16.67;;
68192;SDS011;55012;47.562;18.414;2022-12-16T08:50:04;46.22;;;17.27;;
68192;SDS011;55012;47.562;18.414;2022-12-16T08:52:48;48.08;;;17.52;;
68192;SDS011;55012;47.562;18.414;2022-12-16T08:55:32;38.92;;;16.75;;
68192;SDS011;55012;47.562;18.414;2022-12-16T08:58:16;42.40;;;17.90;;
68192;SDS011;55012;47.562;18.414;2022-12-16T09:01:00;39.50;;;17.50;;
68192;SDS011;55012;47.562;18.414;2022-12-16T09:03:44;45.00;;;17.65;;
68192;SDS011;55012;47.562;18.414;2022-12-16T09:06:28;53.17;;;20.27;;
68192;SDS011;55012;47.562;18.414;2022-12-16T09:09:12;45.70;;;18.13;;
68192;SDS011;55012;47.562;18.414;2022-12-16T09:11:56;44.33;;;18.30;;
68192;SDS011;55012;47.562;18.414;2022-12-16T09:14:40;44.35;;;18.05;;
68192;SDS011;55012;47.562;18.414;2022-12-16T09:17:23;43.78;;;18.05;;
68192;SDS011;55012;47.562;18.414;2022-12-16T09:20:07;40.38;;;17.20;;
68192;SDS011;55012;47.562;18.414;2022-12-16T09:22:52;42.90;;;18.00;;
68192;SDS011;55012;47.562;18.414;2022-12-16T09:25:36;38.72;;;15.85;;
68192;SDS011;55012;47.562;18.414;2022-12-16T09:28:20;39.90;;;17.52;;
68192;SDS011;55012;47.562;18.414;2022-12-16T09:31:04;43.00;;;17.75;;
68192;SDS011;55012;47.562;18.414;2022-12-16T09:33:48;61.40;;;25.60;;
68192;SDS011;55012;47.562;18.414;2022-12-16T09:36:32;48.65;;;19.92;;
68192;SDS011;55012;47.562;18.414;2022-12-16T09:39:16;53.55;;;21.45;;
68192;SDS011;55012;47.562;18.414;2022-12-16T09:45:33;57.92;;;23.55;;
68192;SDS011;55012;47.562;18.414;2022-12-16T09:48:30;56.70;;;21.90;;
68192;SDS011;55012;47.562;18.414;2022-12-16T09:51:22;62.63;;;24.42;;
68192;SDS011;55012;47.562;18.414;2022-12-16T09:54:10;63.70;;;25.20;;
68192;SDS011;55012;47.562;18.414;2022-12-16T09:56:58;63.55;;;24.63;;
68192;SDS011;55012;47.562;18.414;2022-12-16T09:59:44;62.03;;;21.05;;
68192;SDS011;55012;47.562;18.414;2022-12-16T10:02:36;74.65;;;22.20;;
68192;SDS011;55012;47.562;18.414;2022-12-16T10:05:24;91.72;;;23.20;;
68192;SDS011;55012;47.562;18.414;2022-12-16T10:08:24;133.05;;;26.33;;
68192;SDS011;55012;47.562;18.414;2022-12-16T10:14:30;138.77;;;24.42;;
68192;SDS011;55012;47.562;18.414;2022-12-16T10:17:22;98.60;;;25.52;;
68192;SDS011;55012;47.562;18.414;2022-12-16T10:20:28;115.80;;;23.73;;
68192;SDS011;55012;47.562;18.414;2022-12-16T10:23:21;166.73;;;27.85;;
68192;SDS011;55012;47.562;18.414;2022-12-16T10:29:17;268.33;;;29.80;;
68192;SDS011;55012;47.562;18.414;2022-12-16T10:35:01;384.65;;;32.83;;
68192;SDS011;55012;47.562;18.414;2022-12-16T10:37:51;334.85;;;28.70;;
68192;SDS011;55012;47.562;18.414;2022-12-16T10:40:36;332.60;;;27.40;;
68192;SDS011;55012;47.562;18.414;2022-12-16T10:43:27;187.93;;;25.13;;
68192;SDS011;55012;47.562;18.414;2022-12-16T10:46:21;214.15;;;23.45;;
68192;SDS011;55012;47.562;18.414;2022-12-16T10:49:12;308.10;;;24.98;;
68192;SDS011;55012;47.562;18.414;2022-12-16T10:51:57;304.80;;;25.55;;
68192;SDS011;55012;47.562;18.414;2022-12-16T10:54:43;386.00;;;30.00;;
68192;SDS011;55012;47.562;18.414;2022-12-16T10:57:44;270.92;;;23.75;;
68192;SDS011;55012;47.562;18.414;2022-12-16T11:00:40;249.55;;;25.02;;
68192;SDS011;55012;47.562;18.414;2022-12-16T11:03:25;145.18;;;22.38;;
68192;SDS011;55012;47.562;18.414;2022-12-16T11:06:12;78.05;;;19.63;;
68192;SDS011;55012;47.562;18.414;2022-12-16T11:12:16;72.82;;;17.85;;
68192;SDS011;55012;47.562;18.414;2022-12-16T11:15:17;66.03;;;17.67;;
68192;SDS011;55012;47.562;18.414;2022-12-16T11:18:04;72.60;;;19.52;;
68192;SDS011;55012;47.562;18.414;2022-12-16T11:24:17;68.40;;;19.42;;
68192;SDS011;55012;47.562;18.414;2022-12-16T11:27:04;53.22;;;16.75;;
68192;SDS011;55012;47.562;18.414;2022-12-16T11:30:28;59.72;;;17.15;;
68192;SDS011;55012;47.562;18.414;2022-12-16T11:36:07;62.70;;;17.02;;
68192;SDS011;55012;47.562;18.414;2022-12-16T11:38:56;60.97;;;17.08;;
68192;SDS011;55012;47.562;18.414;2022-12-16T11:41:41;68.18;;;18.77;;
68192;SDS011;55012;47.562;18.414;2022-12-16T11:44:42;53.28;;;16.15;;
68192;SDS011;55012;47.562;18.414;2022-12-16T11:47:39;67.38;;;17.33;;
68192;SDS011;55012;47.562;18.414;2022-12-16T11:50:28;76.28;;;18.63;;
68192;SDS011;55012;47.562;18.414;2022-12-16T11:53:39;59.63;;;16.60;;
68192;SDS011;55012;47.562;18.414;2022-12-16T11:56:21;75.45;;;17.88;;
68192;SDS011;55012;47.562;18.414;2022-12-16T11:59:10;75.82;;;17.38;;
68192;SDS011;55012;47.562;18.414;2022-12-16T12:02:20;91.50;;;18.15;;
68192;SDS011;55012;47.562;18.414;2022-12-16T12:08:03;58.05;;;15.70;;
68192;SDS011;55012;47.562;18.414;2022-12-16T12:17:16;58.08;;;17.70;;
68192;SDS011;55012;47.562;18.414;2022-12-16T12:23:31;62.70;;;16.73;;
68192;SDS011;55012;47.562;18.414;2022-12-16T12:26:32;57.45;;;16.60;;
68192;SDS011;55012;47.562;18.414;2022-12-16T12:35:45;43.90;;;14.30;;
68192;SDS011;55012;47.562;18.414;2022-12-16T12:38:46;60.30;;;19.15;;
68192;SDS011;55012;47.562;18.414;2022-12-16T12:47:33;55.28;;;18.50;;
68192;SDS011;55012;47.562;18.414;2022-12-16T12:50:32;47.53;;;16.40;;
68192;SDS011;55012;47.562;18.414;2022-12-16T12:59:04;53.90;;;17.50;;
68192;SDS011;55012;47.562;18.414;2022-12-16T13:01:56;50.65;;;15.07;;
68192;SDS011;55012;47.562;18.414;2022-12-16T13:04:42;54.13;;;17.35;;
68192;SDS011;55012;47.562;18.414;2022-12-16T13:07:30;54.47;;;16.70;;
68192;SDS011;55012;47.562;18.414;2022-12-16T13:15:58;50.88;;;15.95;;
68192;SDS011;55012;47.562;18.414;2022-12-16T13:18:43;42.60;;;13.70;;
68192;SDS011;55012;47.562;18.414;2022-12-16T13:27:09;56.05;;;16.85;;
68192;SDS011;55012;47.562;18.414;2022-12-16T13:30:04;44.72;;;14.73;;
68192;SDS011;55012;47.562;18.414;2022-12-16T13:33:00;54.65;;;16.27;;
68192;SDS011;55012;47.562;18.414;2022-12-16T13:35:55;49.60;;;15.63;;
68192;SDS011;55012;47.562;18.414;2022-12-16T13:38:48;55.72;;;17.40;;
68192;SDS011;55012;47.562;18.414;2022-12-16T13:56:29;57.90;;;17.70;;
68192;SDS011;55012;47.562;18.414;2022-12-16T13:59:19;64.47;;;17.27;;
68192;SDS011;55012;47.562;18.414;2022-12-16T14:05:23;68.75;;;18.98;;
68192;SDS011;55012;47.562;18.414;2022-12-16T14:08:21;72.82;;;19.67;;
68192;SDS011;55012;47.562;18.414;2022-12-16T14:11:31;70.20;;;19.58;;
68192;SDS011;55012;47.562;18.414;2022-12-16T14:14:22;63.00;;;16.70;;
68192;SDS011;55012;47.562;18.414;2022-12-16T14:17:23;78.22;;;20.25;;
68192;SDS011;55012;47.562;18.414;2022-12-16T14:20:20;68.38;;;17.58;;
68192;SDS011;55012;47.562;18.414;2022-12-16T14:26:00;65.63;;;16.27;;
68192;SDS011;55012;47.562;18.414;2022-12-16T14:28:45;65.80;;;16.50;;
68192;SDS011;55012;47.562;18.414;2022-12-16T14:34:23;82.22;;;19.50;;
68192;SDS011;55012;47.562;18.414;2022-12-16T14:37:14;100.95;;;18.15;;
68192;SDS011;55012;47.562;18.414;2022-12-16T14:39:59;81.72;;;19.65;;
68192;SDS011;55012;47.562;18.414;2022-12-16T14:42:43;102.82;;;21.05;;
68192;SDS011;55012;47.562;18.414;2022-12-16T14:45:33;122.43;;;21.30;;
68192;SDS011;55012;47.562;18.414;2022-12-16T14:51:28;86.13;;;20.40;;
68192;SDS011;55012;47.562;18.414;2022-12-16T14:57:09;81.95;;;20.55;;
68192;SDS011;55012;47.562;18.414;2022-12-16T15:02:51;75.22;;;21.63;;
68192;SDS011;55012;47.562;18.414;2022-12-16T15:05:42;77.03;;;19.55;;
68192;SDS011;55012;47.562;18.414;2022-12-16T15:08:27;82.85;;;21.35;;
68192;SDS011;55012;47.562;18.414;2022-12-16T15:11:17;66.25;;;16.42;;
68192;SDS011;55012;47.562;18.414;2022-12-16T15:14:03;75.15;;;19.50;;
68192;SDS011;55012;47.562;18.414;2022-12-16T15:16:50;79.63;;;19.58;;
68192;SDS011;55012;47.562;18.414;2022-12-16T15:19:40;90.38;;;23.08;;
68192;SDS011;55012;47.562;18.414;2022-12-16T15:22:27;85.10;;;24.73;;
68192;SDS011;55012;47.562;18.414;2022-12-16T15:25:46;101.45;;;25.13;;
68192;SDS011;55012;47.562;18.414;2022-12-16T15:31:25;62.28;;;18.08;;
68192;SDS011;55012;47.562;18.414;2022-12-16T15:34:34;75.03;;;18.85;;
68192;SDS011;55012;47.562;18.414;2022-12-16T15:37:38;69.00;;;20.88;;
68192;SDS011;55012;47.562;18.414;2022-12-16T15:40:26;70.32;;;19.42;;
68192;SDS011;55012;47.562;18.414;2022-12-16T15:43:19;74.18;;;21.80;;
68192;SDS011;55012;47.562;18.414;2022-12-16T15:46:21;71.28;;;21.88;;
68192;SDS011;55012;47.562;18.414;2022-12-16T15:52:02;83.38;;;23.02;;
68192;SDS011;55012;47.562;18.414;2022-12-16T15:58:10;97.63;;;27.45;;
68192;SDS011;55012;47.562;18.414;2022-12-16T16:01:11;89.65;;;29.33;;
68192;SDS011;55012;47.562;18.414;2022-12-16T16:03:59;86.38;;;25.85;;
68192;SDS011;55012;47.562;18.414;2022-12-16T16:06:45;69.13;;;21.27;;
68192;SDS011;55012;47.562;18.414;2022-12-16T16:09:32;71.97;;;22.60;;
68192;SDS011;55012;47.562;18.414;2022-12-16T16:12:18;81.57;;;23.17;;
68192;SDS011;55012;47.562;18.414;2022-12-16T16:15:04;67.95;;;23.73;;
68192;SDS011;55012;47.562;18.414;2022-12-16T16:17:53;77.03;;;23.65;;
68192;SDS011;55012;47.562;18.414;2022-12-16T16:20:39;78.13;;;23.27;;
68192;SDS011;55012;47.562;18.414;2022-12-16T16:23:23;76.47;;;24.38;;
68192;SDS011;55012;47.562;18.414;2022-12-16T16:26:10;76.57;;;24.40;;
68192;SDS011;55012;47.562;18.414;2022-12-16T16:28:56;75.63;;;23.98;;
68192;SDS011;55012;47.562;18.414;2022-12-16T16:31:39;70.03;;;22.98;;
68192;SDS011;55012;47.562;18.414;2022-12-16T16:34:24;71.18;;;23.92;;
68192;SDS011;55012;47.562;18.414;2022-12-16T16:37:11;78.10;;;24.00;;
68192;SDS011;55012;47.562;18.414;2022-12-16T16:39:58;77.28;;;24.50;;
68192;SDS011;55012;47.562;18.414;2022-12-16T16:42:42;65.05;;;21.58;;
68192;SDS011;55012;47.562;18.414;2022-12-16T16:45:26;62.53;;;20.67;;
68192;SDS011;55012;47.562;18.414;2022-12-16T16:48:11;66.00;;;21.67;;
68192;SDS011;55012;47.562;18.414;2022-12-16T16:50:57;64.00;;;19.90;;
68192;SDS011;55012;47.562;18.414;2022-12-16T16:53:42;75.20;;;23.80;;
68192;SDS011;55012;47.562;18.414;2022-12-16T16:56:27;64.45;;;22.40;;
68192;SDS011;55012;47.562;18.414;2022-12-16T16:59:13;69.10;;;21.48;;
68192;SDS011;55012;47.562;18.414;2022-12-16T17:01:57;80.78;;;24.80;;
68192;SDS011;55012;47.562;18.414;2022-12-16T17:04:41;72.80;;;22.83;;
68192;SDS011;55012;47.562;18.414;2022-12-16T17:07:25;80.60;;;24.95;;
68192;SDS011;55012;47.562;18.414;2022-12-16T17:10:09;82.30;;;24.23;;
68192;SDS011;55012;47.562;18.414;2022-12-16T17:12:53;86.63;;;26.75;;
68192;SDS011;55012;47.562;18.414;2022-12-16T17:15:37;84.85;;;23.90;;
68192;SDS011;55012;47.562;18.414;2022-12-16T17:18:22;80.22;;;24.25;;
68192;SDS011;55012;47.562;18.414;2022-12-16T17:21:06;87.05;;;27.13;;
68192;SDS011;55012;47.562;18.414;2022-12-16T17:23:50;86.95;;;28.25;;
68192;SDS011;55012;47.562;18.414;2022-12-16T17:26:45;96.88;;;28.73;;
68192;SDS011;55012;47.562;18.414;2022-12-16T17:29:29;84.60;;;27.35;;
68192;SDS011;55012;47.562;18.414;2022-12-16T17:32:13;96.57;;;30.15;;
68192;SDS011;55012;47.562;18.414;2022-12-16T17:34:56;90.43;;;27.63;;
68192;SDS011;55012;47.562;18.414;2022-12-16T17:37:41;104.60;;;30.42;;
68192;SDS011;55012;47.562;18.414;2022-12-16T17:40:25;96.47;;;30.67;;
68192;SDS011;55012;47.562;18.414;2022-12-16T17:43:09;97.90;;;30.08;;
68192;SDS011;55012;47.562;18.414;2022-12-16T17:46:03;85.47;;;27.25;;
68192;SDS011;55012;47.562;18.414;2022-12-16T17:48:52;76.35;;;24.63;;
68192;SDS011;55012;47.562;18.414;2022-12-16T17:51:37;86.47;;;27.30;;